KCMA

Camarillo Airport

Camarillo, California, USA
METAR KCMA 230255Z 27006KT 10SM CLR 15/10 A2991 RMK AO2 SLP136 T01500100 53007
Observed Flight Rules
May-23 @ 02:55 UTC (14 minutes ago) Visual Flight Rules
Wind Visibility Clouds
270° at 6 knots 10 miles
  • Clear skies
Temperatures Readings
Current 15°C / 59°F
Dewpoint 10°C / 50°F
Humidity 72%
Altimeter 29.91" Hg
Pressure 1013.6 hPa
Elevation 23
METAR KCMA 230255Z 27006KT 10SM CLR 15/10 A2991 RMK AO2 SLP136 T01500100 53007
Observed Flight Rules
May-23 @ 02:55 UTC
(14 minutes ago)
VFR
Wind Visibility
270° at 6 knots 10 miles
Clouds
  • Clear skies
Temperature Dewpoint
15°C / 59°F 10°C / 50°F
Humidity Altimeter Pressure
72% 29.91" Hg 1013.6 hPa